sensor_id;sensor_type;location;lat;lon;timestamp;pressure;altitude;pressure_sealevel;temperature;humidity
37904;BME280;23738;50.422;18.758;2023-03-14T00:00:21;97000.25;;;5.48;68.81
37904;BME280;23738;50.422;18.758;2023-03-14T00:02:54;96991.14;;;5.47;68.64
37904;BME280;23738;50.422;18.758;2023-03-14T00:05:23;96985.38;;;5.44;68.84
37904;BME280;23738;50.422;18.758;2023-03-14T00:07:53;96984.41;;;5.44;69.07
37904;BME280;23738;50.422;18.758;2023-03-14T00:10:22;96974.52;;;5.42;68.84
37904;BME280;23738;50.422;18.758;2023-03-14T00:12:51;96961.39;;;5.35;68.87
37904;BME280;23738;50.422;18.758;2023-03-14T00:15:20;96940.89;;;5.32;68.94
37904;BME280;23738;50.422;18.758;2023-03-14T00:17:50;96930.98;;;5.26;68.86
37904;BME280;23738;50.422;18.758;2023-03-14T00:20:19;96929.95;;;5.21;68.82
37904;BME280;23738;50.422;18.758;2023-03-14T00:22:48;96926.82;;;5.19;68.94
37904;BME280;23738;50.422;18.758;2023-03-14T00:25:18;96921.45;;;5.21;69.11
37904;BME280;23738;50.422;18.758;2023-03-14T00:27:47;96917.42;;;5.23;69.20
37904;BME280;23738;50.422;18.758;2023-03-14T00:30:19;96917.27;;;5.23;68.99
37904;BME280;23738;50.422;18.758;2023-03-14T00:32:49;96907.55;;;5.24;69.19
37904;BME280;23738;50.422;18.758;2023-03-14T00:35:19;96889.90;;;5.27;69.31
37904;BME280;23738;50.422;18.758;2023-03-14T00:37:48;96878.73;;;5.27;69.53
37904;BME280;23738;50.422;18.758;2023-03-14T00:40:18;96881.52;;;5.26;69.36
37904;BME280;23738;50.422;18.758;2023-03-14T00:42:47;96895.95;;;5.20;69.64
37904;BME280;23738;50.422;18.758;2023-03-14T00:45:17;96895.00;;;5.18;69.45
37904;BME280;23738;50.422;18.758;2023-03-14T00:47:46;96892.19;;;5.17;69.52
37904;BME280;23738;50.422;18.758;2023-03-14T00:50:15;96874.63;;;5.16;69.42
37904;BME280;23738;50.422;18.758;2023-03-14T00:52:45;96859.84;;;5.16;69.76
37904;BME280;23738;50.422;18.758;2023-03-14T00:55:16;96862.99;;;5.17;69.73
37904;BME280;23738;50.422;18.758;2023-03-14T00:57:46;96856.00;;;5.21;69.84
37904;BME280;23738;50.422;18.758;2023-03-14T01:00:16;96861.30;;;5.27;69.94
37904;BME280;23738;50.422;18.758;2023-03-14T01:02:45;96858.02;;;5.29;70.07
37904;BME280;23738;50.422;18.758;2023-03-14T01:05:15;96855.17;;;5.31;70.22
37904;BME280;23738;50.422;18.758;2023-03-14T01:07:44;96840.12;;;5.35;70.41
37904;BME280;23738;50.422;18.758;2023-03-14T01:10:14;96823.80;;;5.35;70.12
37904;BME280;23738;50.422;18.758;2023-03-14T01:12:43;96812.91;;;5.33;70.14
37904;BME280;23738;50.422;18.758;2023-03-14T01:15:12;96815.93;;;5.32;70.21
37904;BME280;23738;50.422;18.758;2023-03-14T01:17:42;96806.63;;;5.32;70.17
37904;BME280;23738;50.422;18.758;2023-03-14T01:20:14;96804.54;;;5.37;70.28
37904;BME280;23738;50.422;18.758;2023-03-14T01:22:44;96795.98;;;5.43;70.45
37904;BME280;23738;50.422;18.758;2023-03-14T01:25:16;96799.91;;;5.50;70.67
37904;BME280;23738;50.422;18.758;2023-03-14T01:27:46;96799.88;;;5.55;70.58
37904;BME280;23738;50.422;18.758;2023-03-14T01:30:16;96799.34;;;5.62;71.04
37904;BME280;23738;50.422;18.758;2023-03-14T01:32:45;96793.93;;;5.72;71.21
37904;BME280;23738;50.422;18.758;2023-03-14T01:35:14;96789.66;;;5.78;71.41
37904;BME280;23738;50.422;18.758;2023-03-14T01:37:43;96789.28;;;5.91;71.38
37904;BME280;23738;50.422;18.758;2023-03-14T01:40:13;96783.70;;;6.05;71.59
37904;BME280;23738;50.422;18.758;2023-03-14T01:42:52;96782.48;;;6.22;71.42
37904;BME280;23738;50.422;18.758;2023-03-14T01:48:28;96781.05;;;6.66;71.86
37904;BME280;23738;50.422;18.758;2023-03-14T01:51:00;96776.30;;;6.85;71.94
37904;BME280;23738;50.422;18.758;2023-03-14T01:53:31;96766.02;;;7.01;71.70
37904;BME280;23738;50.422;18.758;2023-03-14T01:56:00;96771.80;;;7.16;71.56
37904;BME280;23738;50.422;18.758;2023-03-14T01:58:33;96771.05;;;7.27;71.58
37904;BME280;23738;50.422;18.758;2023-03-14T02:01:05;96768.73;;;7.38;71.51
37904;BME280;23738;50.422;18.758;2023-03-14T02:03:38;96772.52;;;7.49;71.23
37904;BME280;23738;50.422;18.758;2023-03-14T02:06:10;96770.70;;;7.58;71.12
37904;BME280;23738;50.422;18.758;2023-03-14T02:08:41;96775.75;;;7.66;71.19
37904;BME280;23738;50.422;18.758;2023-03-14T02:11:11;96775.55;;;7.73;71.16
37904;BME280;23738;50.422;18.758;2023-03-14T02:13:41;96776.48;;;7.78;71.08
37904;BME280;23738;50.422;18.758;2023-03-14T02:16:11;96768.52;;;7.81;70.90
37904;BME280;23738;50.422;18.758;2023-03-14T02:18:41;96752.36;;;7.80;70.75
37904;BME280;23738;50.422;18.758;2023-03-14T02:21:13;96740.02;;;7.81;70.57
37904;BME280;23738;50.422;18.758;2023-03-14T02:23:46;96743.33;;;7.81;70.78
37904;BME280;23738;50.422;18.758;2023-03-14T02:26:22;96745.92;;;7.78;70.57
37904;BME280;23738;50.422;18.758;2023-03-14T02:28:53;96743.40;;;7.73;70.35
37904;BME280;23738;50.422;18.758;2023-03-14T02:31:22;96739.41;;;7.72;70.52
37904;BME280;23738;50.422;18.758;2023-03-14T02:33:52;96743.83;;;7.74;70.55
37904;BME280;23738;50.422;18.758;2023-03-14T02:36:22;96747.02;;;7.77;70.54
37904;BME280;23738;50.422;18.758;2023-03-14T02:38:55;96743.84;;;7.79;70.33
37904;BME280;23738;50.422;18.758;2023-03-14T02:41:28;96750.98;;;7.83;70.12
37904;BME280;23738;50.422;18.758;2023-03-14T02:43:57;96741.15;;;7.85;70.36
37904;BME280;23738;50.422;18.758;2023-03-14T02:46:27;96747.76;;;7.84;70.35
37904;BME280;23738;50.422;18.758;2023-03-14T02:48:59;96750.25;;;7.80;70.28
37904;BME280;23738;50.422;18.758;2023-03-14T02:51:30;96756.55;;;7.78;70.09
37904;BME280;23738;50.422;18.758;2023-03-14T02:54:01;96762.85;;;7.73;69.78
37904;BME280;23738;50.422;18.758;2023-03-14T02:56:30;96764.80;;;7.65;69.90
37904;BME280;23738;50.422;18.758;2023-03-14T02:58:59;96769.47;;;7.59;69.72
37904;BME280;23738;50.422;18.758;2023-03-14T03:01:31;96767.58;;;7.55;70.06
37904;BME280;23738;50.422;18.758;2023-03-14T03:04:00;96764.45;;;7.54;70.08
37904;BME280;23738;50.422;18.758;2023-03-14T03:06:29;96757.41;;;7.53;69.94
37904;BME280;23738;50.422;18.758;2023-03-14T03:08:59;96759.72;;;7.50;69.73
37904;BME280;23738;50.422;18.758;2023-03-14T03:11:28;96769.41;;;7.45;69.84
37904;BME280;23738;50.422;18.758;2023-03-14T03:13:57;96790.54;;;7.36;69.52
37904;BME280;23738;50.422;18.758;2023-03-14T03:16:27;96808.16;;;7.29;69.80
37904;BME280;23738;50.422;18.758;2023-03-14T03:18:56;96821.16;;;7.23;69.76
37904;BME280;23738;50.422;18.758;2023-03-14T03:21:25;96832.59;;;7.19;69.63
37904;BME280;23738;50.422;18.758;2023-03-14T03:23:54;96837.98;;;7.16;69.82
37904;BME280;23738;50.422;18.758;2023-03-14T03:26:24;96845.04;;;7.11;69.77
37904;BME280;23738;50.422;18.758;2023-03-14T03:28:53;96856.11;;;7.07;69.76
37904;BME280;23738;50.422;18.758;2023-03-14T03:31:22;96861.88;;;7.04;69.76
37904;BME280;23738;50.422;18.758;2023-03-14T03:33:51;96862.19;;;7.04;69.80
37904;BME280;23738;50.422;18.758;2023-03-14T03:36:24;96860.54;;;7.05;69.81
37904;BME280;23738;50.422;18.758;2023-03-14T03:38:53;96855.46;;;7.08;69.90
37904;BME280;23738;50.422;18.758;2023-03-14T03:41:23;96840.60;;;7.10;69.76
37904;BME280;23738;50.422;18.758;2023-03-14T03:43:52;96835.77;;;7.10;69.82
37904;BME280;23738;50.422;18.758;2023-03-14T03:46:22;96840.08;;;7.08;69.76
37904;BME280;23738;50.422;18.758;2023-03-14T03:48:55;96827.32;;;7.07;69.99
37904;BME280;23738;50.422;18.758;2023-03-14T03:51:25;96820.96;;;7.01;69.71
37904;BME280;23738;50.422;18.758;2023-03-14T03:53:55;96811.85;;;6.95;70.18
37904;BME280;23738;50.422;18.758;2023-03-14T03:56:25;96808.80;;;6.88;69.85
37904;BME280;23738;50.422;18.758;2023-03-14T03:58:54;96805.42;;;6.79;69.75
37904;BME280;23738;50.422;18.758;2023-03-14T04:01:23;96808.48;;;6.68;69.64
37904;BME280;23738;50.422;18.758;2023-03-14T04:03:53;96808.77;;;6.59;69.66
37904;BME280;23738;50.422;18.758;2023-03-14T04:06:22;96808.42;;;6.51;69.75
37904;BME280;23738;50.422;18.758;2023-03-14T04:08:51;96806.41;;;6.42;69.66
37904;BME280;23738;50.422;18.758;2023-03-14T04:11:22;96804.50;;;6.38;69.54
37904;BME280;23738;50.422;18.758;2023-03-14T04:13:52;96795.21;;;6.36;69.86
37904;BME280;23738;50.422;18.758;2023-03-14T04:16:23;96784.54;;;6.33;69.49
37904;BME280;23738;50.422;18.758;2023-03-14T04:18:53;96768.55;;;6.30;69.78
37904;BME280;23738;50.422;18.758;2023-03-14T04:21:22;96759.27;;;6.25;69.71
37904;BME280;23738;50.422;18.758;2023-03-14T04:23:52;96748.15;;;6.18;69.81
37904;BME280;23738;50.422;18.758;2023-03-14T04:26:21;96744.54;;;6.12;69.96
37904;BME280;23738;50.422;18.758;2023-03-14T04:28:50;96742.38;;;6.05;69.80
37904;BME280;23738;50.422;18.758;2023-03-14T04:31:21;96743.23;;;5.98;69.87
37904;BME280;23738;50.422;18.758;2023-03-14T04:33:51;96748.77;;;5.88;69.96
37904;BME280;23738;50.422;18.758;2023-03-14T04:36:20;96743.39;;;5.78;69.81
37904;BME280;23738;50.422;18.758;2023-03-14T04:38:49;96752.83;;;5.72;69.65
37904;BME280;23738;50.422;18.758;2023-03-14T04:41:19;96750.62;;;5.69;70.01
37904;BME280;23738;50.422;18.758;2023-03-14T04:43:48;96744.96;;;5.70;70.12
37904;BME280;23738;50.422;18.758;2023-03-14T04:46:17;96734.05;;;5.70;69.98
37904;BME280;23738;50.422;18.758;2023-03-14T04:48:46;96729.42;;;5.69;70.11
37904;BME280;23738;50.422;18.758;2023-03-14T04:51:16;96724.14;;;5.70;70.24
37904;BME280;23738;50.422;18.758;2023-03-14T04:53:45;96716.08;;;5.68;70.34
37904;BME280;23738;50.422;18.758;2023-03-14T04:56:14;96708.99;;;5.68;70.60
37904;BME280;23738;50.422;18.758;2023-03-14T04:58:44;96700.96;;;5.65;70.66
37904;BME280;23738;50.422;18.758;2023-03-14T05:01:13;96699.61;;;5.64;70.52
37904;BME280;23738;50.422;18.758;2023-03-14T05:03:42;96700.18;;;5.60;70.50
37904;BME280;23738;50.422;18.758;2023-03-14T05:06:11;96712.34;;;5.57;70.44
37904;BME280;23738;50.422;18.758;2023-03-14T05:08:41;96723.20;;;5.54;70.37
37904;BME280;23738;50.422;18.758;2023-03-14T05:11:13;96717.23;;;5.53;70.53
37904;BME280;23738;50.422;18.758;2023-03-14T05:13:42;96715.98;;;5.54;70.53
37904;BME280;23738;50.422;18.758;2023-03-14T05:16:12;96715.66;;;5.54;70.56
37904;BME280;23738;50.422;18.758;2023-03-14T05:18:41;96711.98;;;5.50;70.62
37904;BME280;23738;50.422;18.758;2023-03-14T05:21:10;96709.09;;;5.52;70.84
37904;BME280;23738;50.422;18.758;2023-03-14T05:23:39;96705.02;;;5.53;70.83
37904;BME280;23738;50.422;18.758;2023-03-14T05:26:09;96693.77;;;5.51;71.04
37904;BME280;23738;50.422;18.758;2023-03-14T05:28:38;96688.47;;;5.47;70.82
37904;BME280;23738;50.422;18.758;2023-03-14T05:31:10;96692.90;;;5.40;70.85
37904;BME280;23738;50.422;18.758;2023-03-14T05:33:39;96696.52;;;5.36;70.97
37904;BME280;23738;50.422;18.758;2023-03-14T05:36:10;96701.09;;;5.37;71.05
37904;BME280;23738;50.422;18.758;2023-03-14T05:38:39;96704.80;;;5.39;71.10
37904;BME280;23738;50.422;18.758;2023-03-14T05:41:08;96694.82;;;5.43;71.19
37904;BME280;23738;50.422;18.758;2023-03-14T05:43:38;96689.23;;;5.50;71.53
37904;BME280;23738;50.422;18.758;2023-03-14T05:46:08;96688.58;;;5.55;71.37
37904;BME280;23738;50.422;18.758;2023-03-14T05:48:37;96679.83;;;5.60;71.71
37904;BME280;23738;50.422;18.758;2023-03-14T05:51:07;96676.76;;;5.62;71.61
37904;BME280;23738;50.422;18.758;2023-03-14T05:53:37;96667.20;;;5.63;71.82
37904;BME280;23738;50.422;18.758;2023-03-14T05:56:07;96651.72;;;5.64;72.08
37904;BME280;23738;50.422;18.758;2023-03-14T05:58:37;96647.17;;;5.64;72.06
37904;BME280;23738;50.422;18.758;2023-03-14T06:01:07;96641.64;;;5.65;71.95
37904;BME280;23738;50.422;18.758;2023-03-14T06:03:37;96637.08;;;5.70;71.92
37904;BME280;23738;50.422;18.758;2023-03-14T06:06:07;96632.36;;;5.75;72.16
37904;BME280;23738;50.422;18.758;2023-03-14T06:08:37;96630.29;;;5.83;72.38
37904;BME280;23738;50.422;18.758;2023-03-14T06:11:07;96628.14;;;5.90;72.07
37904;BME280;23738;50.422;18.758;2023-03-14T06:13:37;96635.59;;;5.97;72.82
37904;BME280;23738;50.422;18.758;2023-03-14T06:16:07;96632.42;;;6.03;72.77
37904;BME280;23738;50.422;18.758;2023-03-14T06:18:37;96629.23;;;6.11;72.79
37904;BME280;23738;50.422;18.758;2023-03-14T06:21:07;96629.63;;;6.21;72.89
37904;BME280;23738;50.422;18.758;2023-03-14T06:23:37;96623.21;;;6.32;72.87
37904;BME280;23738;50.422;18.758;2023-03-14T06:26:07;96618.81;;;6.46;73.05
37904;BME280;23738;50.422;18.758;2023-03-14T06:28:36;96610.96;;;6.61;73.01
37904;BME280;23738;50.422;18.758;2023-03-14T06:31:06;96606.61;;;6.77;73.03
37904;BME280;23738;50.422;18.758;2023-03-14T06:33:36;96606.79;;;6.94;73.46
37904;BME280;23738;50.422;18.758;2023-03-14T06:36:06;96601.18;;;7.10;73.26
37904;BME280;23738;50.422;18.758;2023-03-14T06:38:36;96597.43;;;7.32;73.29
37904;BME280;23738;50.422;18.758;2023-03-14T06:41:06;96598.64;;;7.58;73.44
37904;BME280;23738;50.422;18.758;2023-03-14T06:43:36;96596.23;;;7.84;73.54
37904;BME280;23738;50.422;18.758;2023-03-14T06:46:06;96592.77;;;8.10;73.38
37904;BME280;23738;50.422;18.758;2023-03-14T06:48:35;96586.05;;;8.40;73.32
37904;BME280;23738;50.422;18.758;2023-03-14T06:51:06;96587.14;;;8.65;73.20
37904;BME280;23738;50.422;18.758;2023-03-14T06:53:35;96592.94;;;8.85;73.09
37904;BME280;23738;50.422;18.758;2023-03-14T06:56:06;96587.05;;;8.97;72.84
37904;BME280;23738;50.422;18.758;2023-03-14T06:58:35;96590.01;;;9.06;72.72
37904;BME280;23738;50.422;18.758;2023-03-14T07:01:05;96591.95;;;9.14;72.05
37904;BME280;23738;50.422;18.758;2023-03-14T07:03:35;96600.95;;;9.20;72.15
37904;BME280;23738;50.422;18.758;2023-03-14T07:06:05;96607.08;;;9.27;71.95
37904;BME280;23738;50.422;18.758;2023-03-14T07:08:35;96605.36;;;9.35;71.86
37904;BME280;23738;50.422;18.758;2023-03-14T07:11:07;96601.95;;;9.44;71.88
37904;BME280;23738;50.422;18.758;2023-03-14T07:13:38;96607.54;;;9.54;71.32
37904;BME280;23738;50.422;18.758;2023-03-14T07:16:08;96619.66;;;9.64;71.25
37904;BME280;23738;50.422;18.758;2023-03-14T07:18:38;96624.78;;;9.71;71.02
37904;BME280;23738;50.422;18.758;2023-03-14T07:21:07;96630.42;;;9.78;71.28
37904;BME280;23738;50.422;18.758;2023-03-14T07:23:37;96635.80;;;9.85;71.25
37904;BME280;23738;50.422;18.758;2023-03-14T07:26:07;96630.00;;;9.91;71.34
37904;BME280;23738;50.422;18.758;2023-03-14T07:28:37;96632.95;;;9.97;70.91
37904;BME280;23738;50.422;18.758;2023-03-14T07:31:06;96639.23;;;10.02;70.66
37904;BME280;23738;50.422;18.758;2023-03-14T07:33:36;96642.28;;;10.09;70.44
37904;BME280;23738;50.422;18.758;2023-03-14T07:36:07;96651.21;;;10.17;70.55
37904;BME280;23738;50.422;18.758;2023-03-14T07:38:36;96647.51;;;10.21;70.36
37904;BME280;23738;50.422;18.758;2023-03-14T07:41:07;96641.35;;;10.25;69.90
37904;BME280;23738;50.422;18.758;2023-03-14T07:43:37;96640.08;;;10.28;70.12
37904;BME280;23738;50.422;18.758;2023-03-14T07:46:07;96644.29;;;10.29;70.12
37904;BME280;23738;50.422;18.758;2023-03-14T07:48:36;96652.21;;;10.32;69.98
37904;BME280;23738;50.422;18.758;2023-03-14T07:51:07;96655.27;;;10.35;69.77
37904;BME280;23738;50.422;18.758;2023-03-14T07:53:36;96660.11;;;10.39;69.67
37904;BME280;23738;50.422;18.758;2023-03-14T07:56:07;96667.57;;;10.43;69.91
37904;BME280;23738;50.422;18.758;2023-03-14T07:58:37;96673.27;;;10.50;69.46
37904;BME280;23738;50.422;18.758;2023-03-14T08:01:07;96670.95;;;10.59;69.22
37904;BME280;23738;50.422;18.758;2023-03-14T08:03:37;96664.95;;;10.68;69.27
37904;BME280;23738;50.422;18.758;2023-03-14T08:06:07;96660.14;;;10.77;69.21
37904;BME280;23738;50.422;18.758;2023-03-14T08:08:36;96662.77;;;10.84;69.08
37904;BME280;23738;50.422;18.758;2023-03-14T08:11:07;96662.77;;;10.89;68.65
37904;BME280;23738;50.422;18.758;2023-03-14T08:13:38;96662.95;;;10.91;68.02
37904;BME280;23738;50.422;18.758;2023-03-14T08:16:09;96660.09;;;10.91;67.90
37904;BME280;23738;50.422;18.758;2023-03-14T08:18:39;96659.04;;;10.91;67.95
37904;BME280;23738;50.422;18.758;2023-03-14T08:21:08;96662.11;;;10.92;67.84
37904;BME280;23738;50.422;18.758;2023-03-14T08:23:38;96672.23;;;10.99;66.75
37904;BME280;23738;50.422;18.758;2023-03-14T08:26:08;96679.69;;;11.13;66.70
37904;BME280;23738;50.422;18.758;2023-03-14T08:28:37;96675.63;;;11.34;66.47
37904;BME280;23738;50.422;18.758;2023-03-14T08:31:07;96676.29;;;11.58;67.25
37904;BME280;23738;50.422;18.758;2023-03-14T08:33:36;96670.02;;;11.86;66.59
37904;BME280;23738;50.422;18.758;2023-03-14T08:36:06;96665.55;;;12.04;66.25
37904;BME280;23738;50.422;18.758;2023-03-14T08:38:36;96660.67;;;12.17;66.38
37904;BME280;23738;50.422;18.758;2023-03-14T08:41:06;96671.73;;;12.24;65.60
37904;BME280;23738;50.422;18.758;2023-03-14T08:43:36;96672.44;;;12.19;65.28
37904;BME280;23738;50.422;18.758;2023-03-14T08:46:06;96676.33;;;12.09;64.93
37904;BME280;23738;50.422;18.758;2023-03-14T08:48:35;96676.77;;;11.97;65.01
37904;BME280;23738;50.422;18.758;2023-03-14T08:51:10;96667.05;;;11.86;65.22
37904;BME280;23738;50.422;18.758;2023-03-14T08:53:40;96666.80;;;11.77;65.26
37904;BME280;23738;50.422;18.758;2023-03-14T08:56:10;96669.69;;;11.69;65.05
37904;BME280;23738;50.422;18.758;2023-03-14T08:58:40;96669.21;;;11.63;65.01
37904;BME280;23738;50.422;18.758;2023-03-14T09:01:10;96674.98;;;11.59;64.88
37904;BME280;23738;50.422;18.758;2023-03-14T09:03:40;96681.46;;;11.57;64.82
37904;BME280;23738;50.422;18.758;2023-03-14T09:06:11;96682.13;;;11.53;65.17
37904;BME280;23738;50.422;18.758;2023-03-14T09:08:41;96689.01;;;11.50;65.24
37904;BME280;23738;50.422;18.758;2023-03-14T09:11:10;96700.79;;;11.50;64.70
37904;BME280;23738;50.422;18.758;2023-03-14T09:13:39;96700.23;;;11.48;64.93
37904;BME280;23738;50.422;18.758;2023-03-14T09:16:10;96701.53;;;11.47;65.04
37904;BME280;23738;50.422;18.758;2023-03-14T09:18:39;96707.83;;;11.50;64.73
37904;BME280;23738;50.422;18.758;2023-03-14T09:21:09;96706.36;;;11.50;64.57
37904;BME280;23738;50.422;18.758;2023-03-14T09:23:39;96709.43;;;11.50;64.15
37904;BME280;23738;50.422;18.758;2023-03-14T09:26:09;96706.16;;;11.51;63.62
37904;BME280;23738;50.422;18.758;2023-03-14T09:28:38;96711.05;;;11.53;63.97
37904;BME280;23738;50.422;18.758;2023-03-14T09:31:09;96714.04;;;11.55;63.99
37904;BME280;23738;50.422;18.758;2023-03-14T09:33:39;96711.10;;;11.59;63.88
37904;BME280;23738;50.422;18.758;2023-03-14T09:36:10;96710.95;;;11.66;64.22
37904;BME280;23738;50.422;18.758;2023-03-14T09:38:39;96707.26;;;11.71;64.56
37904;BME280;23738;50.422;18.758;2023-03-14T09:41:16;96691.79;;;11.77;64.62
37904;BME280;23738;50.422;18.758;2023-03-14T09:43:47;96678.90;;;11.86;64.36
37904;BME280;23738;50.422;18.758;2023-03-14T09:46:22;96689.38;;;11.98;63.83
37904;BME280;23738;50.422;18.758;2023-03-14T09:48:51;96686.01;;;12.07;64.07
37904;BME280;23738;50.422;18.758;2023-03-14T09:51:21;96696.53;;;12.12;63.27
37904;BME280;23738;50.422;18.758;2023-03-14T09:53:52;96700.34;;;12.14;64.00
37904;BME280;23738;50.422;18.758;2023-03-14T09:56:23;96708.87;;;12.13;64.05
37904;BME280;23738;50.422;18.758;2023-03-14T09:58:56;96703.15;;;12.13;63.82
37904;BME280;23738;50.422;18.758;2023-03-14T10:01:29;96693.58;;;12.12;64.02
37904;BME280;23738;50.422;18.758;2023-03-14T10:04:02;96691.77;;;12.11;64.06
37904;BME280;23738;50.422;18.758;2023-03-14T10:06:34;96707.21;;;12.11;63.83
37904;BME280;23738;50.422;18.758;2023-03-14T10:09:04;96706.74;;;12.11;63.95
37904;BME280;23738;50.422;18.758;2023-03-14T10:11:34;96714.58;;;12.13;63.70
37904;BME280;23738;50.422;18.758;2023-03-14T10:14:08;96718.39;;;12.13;63.92
37904;BME280;23738;50.422;18.758;2023-03-14T10:16:42;96717.42;;;12.12;63.92
37904;BME280;23738;50.422;18.758;2023-03-14T10:19:14;96725.02;;;12.15;63.90
37904;BME280;23738;50.422;18.758;2023-03-14T10:21:50;96729.86;;;12.16;63.82
37904;BME280;23738;50.422;18.758;2023-03-14T10:24:22;96737.90;;;12.16;63.89
37904;BME280;23738;50.422;18.758;2023-03-14T10:26:53;96743.70;;;12.12;63.98
37904;BME280;23738;50.422;18.758;2023-03-14T10:29:23;96741.69;;;12.07;63.91
37904;BME280;23738;50.422;18.758;2023-03-14T10:31:55;96742.56;;;12.03;64.03
37904;BME280;23738;50.422;18.758;2023-03-14T10:34:30;96745.05;;;11.99;64.03
37904;BME280;23738;50.422;18.758;2023-03-14T10:37:07;96742.13;;;11.96;64.16
37904;BME280;23738;50.422;18.758;2023-03-14T10:39:44;96743.86;;;11.91;64.12
37904;BME280;23738;50.422;18.758;2023-03-14T10:42:19;96745.02;;;11.85;64.28
37904;BME280;23738;50.422;18.758;2023-03-14T10:44:55;96743.77;;;11.79;64.50
37904;BME280;23738;50.422;18.758;2023-03-14T10:47:27;96732.54;;;11.74;64.74
37904;BME280;23738;50.422;18.758;2023-03-14T10:49:57;96733.30;;;11.68;64.81
37904;BME280;23738;50.422;18.758;2023-03-14T10:52:49;96736.52;;;11.61;64.80
37904;BME280;23738;50.422;18.758;2023-03-14T10:55:19;96740.47;;;11.60;64.95
37904;BME280;23738;50.422;18.758;2023-03-14T10:57:49;96747.80;;;11.59;65.43
37904;BME280;23738;50.422;18.758;2023-03-14T11:00:21;96746.21;;;11.58;65.37
37904;BME280;23738;50.422;18.758;2023-03-14T11:03:00;96747.73;;;11.57;65.37
37904;BME280;23738;50.422;18.758;2023-03-14T11:05:37;96751.73;;;11.55;65.45
37904;BME280;23738;50.422;18.758;2023-03-14T11:08:14;96755.36;;;11.47;65.55
37904;BME280;23738;50.422;18.758;2023-03-14T11:10:50;96753.13;;;11.38;65.57
37904;BME280;23738;50.422;18.758;2023-03-14T11:13:26;96759.53;;;11.29;65.75
37904;BME280;23738;50.422;18.758;2023-03-14T11:16:05;96757.90;;;11.21;66.20
37904;BME280;23738;50.422;18.758;2023-03-14T11:21:52;96763.70;;;11.03;66.22
37904;BME280;23738;50.422;18.758;2023-03-14T11:24:41;96764.61;;;11.00;66.65
37904;BME280;23738;50.422;18.758;2023-03-14T11:27:18;96753.45;;;10.95;66.75
37904;BME280;23738;50.422;18.758;2023-03-14T11:29:56;96748.49;;;10.92;67.01
37904;BME280;23738;50.422;18.758;2023-03-14T11:32:38;96740.96;;;10.86;67.28
37904;BME280;23738;50.422;18.758;2023-03-14T11:35:19;96746.45;;;10.77;67.25
37904;BME280;23738;50.422;18.758;2023-03-14T11:37:53;96738.02;;;10.70;67.18
37904;BME280;23738;50.422;18.758;2023-03-14T11:40:26;96735.60;;;10.64;67.77
37904;BME280;23738;50.422;18.758;2023-03-14T11:43:02;96741.74;;;10.58;67.88
37904;BME280;23738;50.422;18.758;2023-03-14T11:45:35;96742.97;;;10.51;67.87
37904;BME280;23738;50.422;18.758;2023-03-14T11:48:17;96745.73;;;10.50;68.23
37904;BME280;23738;50.422;18.758;2023-03-14T11:50:52;96754.39;;;10.46;68.30
37904;BME280;23738;50.422;18.758;2023-03-14T11:53:25;96755.64;;;10.44;68.79
37904;BME280;23738;50.422;18.758;2023-03-14T11:56:00;96753.39;;;10.39;68.82
37904;BME280;23738;50.422;18.758;2023-03-14T11:58:31;96748.35;;;10.34;69.19
37904;BME280;23738;50.422;18.758;2023-03-14T12:01:08;96738.81;;;10.28;69.35
37904;BME280;23738;50.422;18.758;2023-03-14T12:03:45;96736.55;;;10.22;69.30
37904;BME280;23738;50.422;18.758;2023-03-14T12:06:23;96729.69;;;10.16;69.52
37904;BME280;23738;50.422;18.758;2023-03-14T12:08:54;96719.98;;;10.14;69.61
37904;BME280;23738;50.422;18.758;2023-03-14T12:11:35;96712.20;;;10.12;69.66
37904;BME280;23738;50.422;18.758;2023-03-14T12:14:20;96713.34;;;10.11;69.74
37904;BME280;23738;50.422;18.758;2023-03-14T12:16:56;96713.46;;;10.09;70.15
37904;BME280;23738;50.422;18.758;2023-03-14T12:19:32;96718.77;;;10.04;70.17
37904;BME280;23738;50.422;18.758;2023-03-14T12:22:12;96721.08;;;10.00;70.07
37904;BME280;23738;50.422;18.758;2023-03-14T12:24:51;96722.15;;;9.97;70.42
37904;BME280;23738;50.422;18.758;2023-03-14T12:27:42;96722.11;;;9.97;70.56
37904;BME280;23738;50.422;18.758;2023-03-14T12:30:24;96723.92;;;10.00;70.61
37904;BME280;23738;50.422;18.758;2023-03-14T12:33:21;96717.10;;;10.05;70.67
37904;BME280;23738;50.422;18.758;2023-03-14T12:36:00;96704.96;;;10.06;71.03
37904;BME280;23738;50.422;18.758;2023-03-14T12:38:41;96699.13;;;10.09;71.12
37904;BME280;23738;50.422;18.758;2023-03-14T12:41:17;96695.19;;;10.15;71.34
37904;BME280;23738;50.422;18.758;2023-03-14T12:43:47;96689.16;;;10.21;71.40
37904;BME280;23738;50.422;18.758;2023-03-14T12:46:22;96690.16;;;10.29;71.49
37904;BME280;23738;50.422;18.758;2023-03-14T12:48:55;96685.13;;;10.41;71.64
37904;BME280;23738;50.422;18.758;2023-03-14T12:51:36;96678.14;;;10.52;71.94
37904;BME280;23738;50.422;18.758;2023-03-14T12:54:24;96674.51;;;10.61;71.85
37904;BME280;23738;50.422;18.758;2023-03-14T12:57:06;96672.45;;;10.65;72.28
37904;BME280;23738;50.422;18.758;2023-03-14T12:59:43;96669.76;;;10.66;72.18
37904;BME280;23738;50.422;18.758;2023-03-14T13:02:23;96669.75;;;10.64;72.28
37904;BME280;23738;50.422;18.758;2023-03-14T13:05:01;96677.04;;;10.65;72.37
37904;BME280;23738;50.422;18.758;2023-03-14T13:08:01;96676.73;;;10.61;72.44
37904;BME280;23738;50.422;18.758;2023-03-14T13:10:28;96679.48;;;10.62;72.41
37904;BME280;23738;50.422;18.758;2023-03-14T13:13:03;96679.92;;;10.63;72.64
37904;BME280;23738;50.422;18.758;2023-03-14T13:15:41;96682.76;;;10.66;72.72
37904;BME280;23738;50.422;18.758;2023-03-14T13:18:14;96688.88;;;10.69;72.72
37904;BME280;23738;50.422;18.758;2023-03-14T13:20:48;96690.76;;;10.72;72.87
37904;BME280;23738;50.422;18.758;2023-03-14T13:23:23;96690.08;;;10.67;72.88